createdAt,value
2023-02-02T00:02:04.175Z,96374.94
2023-02-02T00:04:33.727Z,96377.91
2023-02-02T00:07:05.007Z,96372.72
2023-02-02T00:09:34.300Z,96371.25
2023-02-02T00:12:03.174Z,96368.16
2023-02-02T00:14:32.578Z,96383.31
2023-02-02T00:17:00.568Z,96375.09
2023-02-02T00:19:31.643Z,96377.00
2023-02-02T00:22:00.139Z,96370.94
2023-02-02T00:24:28.638Z,96367.84
2023-02-02T00:26:58.557Z,96370.69
2023-02-02T00:29:28.847Z,96367.03
2023-02-02T00:31:58.688Z,96355.00
2023-02-02T00:34:26.663Z,96361.66
2023-02-02T00:36:54.663Z,96360.66
2023-02-02T00:39:26.278Z,96361.06
2023-02-02T00:41:54.802Z,96346.47
2023-02-02T00:44:40.206Z,96350.84
2023-02-02T00:47:09.625Z,96356.31
2023-02-02T00:49:37.891Z,96350.88
2023-02-02T00:52:06.140Z,96345.41
2023-02-02T00:54:34.099Z,96342.91
2023-02-02T00:57:02.016Z,96334.41
2023-02-02T00:59:30.069Z,96333.50
2023-02-02T01:01:57.999Z,96328.84
2023-02-02T01:04:27.387Z,96330.78
2023-02-02T01:06:55.446Z,96332.09
2023-02-02T01:09:23.493Z,96324.69
2023-02-02T01:11:51.449Z,96332.25
2023-02-02T01:14:19.421Z,96341.06
2023-02-02T01:16:47.386Z,96333.78
2023-02-02T01:19:16.139Z,96334.81
2023-02-02T01:21:45.499Z,96336.81
2023-02-02T01:24:13.448Z,96329.78
2023-02-02T01:26:41.468Z,96325.38
2023-02-02T01:29:09.470Z,96331.53
2023-02-02T01:31:37.403Z,96332.28
2023-02-02T01:34:05.391Z,96335.22
2023-02-02T01:36:33.361Z,96342.84
2023-02-02T01:39:02.689Z,96342.34
2023-02-02T01:41:30.701Z,96340.09
2023-02-02T01:44:01.166Z,96339.59
2023-02-02T01:46:31.388Z,96342.59
2023-02-02T01:49:04.993Z,96342.81
2023-02-02T01:51:39.789Z,96344.28
2023-02-02T01:54:13.271Z,96346.56
2023-02-02T01:56:44.651Z,96342.06
2023-02-02T01:59:15.810Z,96333.22
2023-02-02T02:01:46.072Z,96339.19
2023-02-02T02:04:14.236Z,96334.03
2023-02-02T02:06:42.578Z,96344.34
2023-02-02T02:09:12.327Z,96338.06
2023-02-02T02:11:40.296Z,96333.72
2023-02-02T02:14:29.331Z,96327.25
2023-02-02T02:17:24.307Z,96329.44
2023-02-02T02:20:36.954Z,96333.28
2023-02-02T02:23:56.482Z,96334.22
2023-02-02T02:26:49.813Z,96334.28
2023-02-02T02:29:39.414Z,96332.16
2023-02-02T02:32:20.538Z,96334.06
2023-02-02T02:34:56.232Z,96334.38
2023-02-02T02:37:38.143Z,96326.28
2023-02-02T02:40:12.760Z,96335.91
2023-02-02T02:42:46.535Z,96338.13
2023-02-02T02:45:18.013Z,96338.78
2023-02-02T02:47:50.151Z,96334.44
2023-02-02T02:50:18.763Z,96340.56
2023-02-02T02:52:48.866Z,96341.66
2023-02-02T02:55:17.055Z,96341.09
2023-02-02T02:58:08.472Z,96354.09
2023-02-02T03:01:02.630Z,96343.19
2023-02-02T03:03:49.856Z,96345.78
2023-02-02T03:06:24.463Z,96339.94
2023-02-02T03:08:56.604Z,96338.34
2023-02-02T03:11:24.662Z,96341.88
2023-02-02T03:13:52.584Z,96350.28
2023-02-02T03:16:20.557Z,96345.25
2023-02-02T03:18:49.863Z,96331.56
2023-02-02T03:21:17.817Z,96328.31
2023-02-02T03:23:45.700Z,96325.88
2023-02-02T03:26:13.623Z,96322.09
2023-02-02T03:28:41.880Z,96318.59
2023-02-02T03:31:09.997Z,96328.91
2023-02-02T03:33:39.167Z,96323.75
2023-02-02T03:36:09.166Z,96322.91
2023-02-02T03:38:37.094Z,96325.38
2023-02-02T03:41:06.219Z,96318.44
2023-02-02T03:43:34.166Z,96320.22
2023-02-02T03:46:04.385Z,96312.59
2023-02-02T03:48:35.610Z,96303.13
2023-02-02T03:51:08.590Z,96305.53
2023-02-02T03:53:36.505Z,96306.34
2023-02-02T03:56:05.249Z,96309.59
2023-02-02T03:58:33.180Z,96316.06
2023-02-02T04:01:04.635Z,96306.91
2023-02-02T04:03:32.734Z,96305.81
2023-02-02T04:06:00.716Z,96315.91
2023-02-02T04:08:30.225Z,96315.91
2023-02-02T04:10:58.256Z,96310.16
2023-02-02T04:13:26.191Z,96310.97
2023-02-02T04:15:58.619Z,96310.16
2023-02-02T04:18:26.574Z,96309.63
2023-02-02T04:20:58.685Z,96297.47
2023-02-02T04:23:26.739Z,96301.97
2023-02-02T04:25:56.076Z,96308.09
2023-02-02T04:28:24.867Z,96301.03
2023-02-02T04:30:54.074Z,96310.00
2023-02-02T04:33:22.542Z,96314.50
2023-02-02T04:35:50.692Z,96315.41
2023-02-02T04:38:18.657Z,96324.13
2023-02-02T04:40:48.385Z,96322.22
2023-02-02T04:43:17.898Z,96322.50
2023-02-02T04:45:46.059Z,96325.72
2023-02-02T04:48:13.950Z,96321.41
2023-02-02T04:50:41.971Z,96330.88
2023-02-02T04:53:09.883Z,96337.69
2023-02-02T04:55:39.046Z,96330.88
2023-02-02T04:58:07.340Z,96329.25
2023-02-02T05:00:36.660Z,96329.00
2023-02-02T05:03:04.657Z,96330.88
2023-02-02T05:05:32.548Z,96336.34
2023-02-02T05:08:00.786Z,96342.34
2023-02-02T05:10:28.890Z,96344.28
2023-02-02T05:12:57.360Z,96334.25
2023-02-02T05:15:25.750Z,96350.00
2023-02-02T05:17:55.249Z,96344.44
2023-02-02T05:20:23.207Z,96346.72
2023-02-02T05:22:51.169Z,96341.56
2023-02-02T05:25:19.184Z,96340.25
2023-02-02T05:27:47.651Z,96345.38
2023-02-02T05:30:16.564Z,96340.53
2023-02-02T05:32:44.500Z,96340.81
2023-02-02T05:35:13.809Z,96352.75
2023-02-02T05:37:43.616Z,96347.88
2023-02-02T05:40:12.518Z,96348.16
2023-02-02T05:42:40.428Z,96344.63
2023-02-02T05:45:09.192Z,96349.78
2023-02-02T05:47:37.159Z,96354.41
2023-02-02T05:50:05.230Z,96364.81
2023-02-02T05:52:36.672Z,96365.78
2023-02-02T05:55:05.751Z,96367.16
2023-02-02T05:57:33.640Z,96367.16
2023-02-02T06:00:01.619Z,96362.25
2023-02-02T06:02:40.051Z,96364.81
2023-02-02T06:05:09.042Z,96370.69
2023-02-02T06:07:38.290Z,96369.31
2023-02-02T06:10:06.719Z,96364.16
2023-02-02T06:12:34.657Z,96365.78
2023-02-02T06:15:02.698Z,96364.16
2023-02-02T06:17:30.662Z,96375.84
2023-02-02T06:19:58.699Z,96367.97
2023-02-02T06:22:26.621Z,96368.78
2023-02-02T06:24:55.885Z,96367.16
2023-02-02T06:27:23.800Z,96363.34
2023-02-02T06:29:51.724Z,96367.91
2023-02-02T06:32:19.678Z,96369.53
2023-02-02T06:34:47.636Z,96373.41
2023-02-02T06:37:15.502Z,96370.44
2023-02-02T06:39:43.560Z,96357.56
2023-02-02T06:42:21.201Z,96358.53
2023-02-02T06:44:49.780Z,96368.81
2023-02-02T06:47:17.706Z,96366.63
2023-02-02T06:49:45.592Z,96374.75
2023-02-02T06:52:13.514Z,96379.63
2023-02-02T06:54:41.431Z,96367.69
2023-02-02T06:57:09.534Z,96370.84
2023-02-02T06:59:41.049Z,96373.41
2023-02-02T07:02:12.308Z,96384.94
2023-02-02T07:04:40.360Z,96393.47
2023-02-02T07:07:08.282Z,96395.91
2023-02-02T07:09:36.894Z,96390.19
2023-02-02T07:12:05.041Z,96391.00
2023-02-02T07:14:32.949Z,96387.47
2023-02-02T07:17:02.261Z,96392.06
2023-02-02T07:19:30.158Z,96388.25
2023-02-02T07:21:58.101Z,96399.63
2023-02-02T07:24:27.563Z,96406.94
2023-02-02T07:26:55.695Z,96415.88
2023-02-02T07:29:23.655Z,96403.63
2023-02-02T07:31:51.869Z,96409.31
2023-02-02T07:34:21.237Z,96413.13
2023-02-02T07:36:49.228Z,96406.81
2023-02-02T07:39:17.152Z,96405.69
2023-02-02T07:41:45.185Z,96411.41
2023-02-02T07:44:27.142Z,96404.81
2023-02-02T07:46:55.719Z,96406.91
2023-02-02T07:49:25.026Z,96410.44
2023-02-02T07:51:52.906Z,96406.53
2023-02-02T07:54:20.981Z,96411.84
2023-02-02T07:56:48.881Z,96411.59
2023-02-02T07:59:16.975Z,96407.09
2023-02-02T08:01:44.909Z,96413.69
2023-02-02T08:04:12.855Z,96414.16
2023-02-02T08:06:42.451Z,96418.16
2023-02-02T08:09:11.047Z,96417.56
2023-02-02T08:11:39.565Z,96428.63
2023-02-02T08:14:07.936Z,96429.09
2023-02-02T08:16:36.108Z,96429.91
2023-02-02T08:19:04.598Z,96432.03
2023-02-02T08:21:34.896Z,96428.50
2023-02-02T08:24:05.491Z,96433.06
2023-02-02T08:26:34.011Z,96434.91
2023-02-02T08:29:04.631Z,96438.97
2023-02-02T08:31:34.619Z,96440.00
2023-02-02T08:34:02.883Z,96435.84
2023-02-02T08:36:32.291Z,96450.16
2023-02-02T08:39:03.313Z,96442.44
2023-02-02T08:41:33.146Z,96444.88
2023-02-02T08:44:01.499Z,96438.91
2023-02-02T08:46:29.556Z,96437.72
2023-02-02T08:48:57.566Z,96433.22
2023-02-02T08:51:25.577Z,96427.25
2023-02-02T08:53:53.676Z,96436.19
2023-02-02T08:56:23.078Z,96424.72
2023-02-02T08:58:54.576Z,96433.31
2023-02-02T09:01:24.791Z,96430.41
2023-02-02T09:03:55.002Z,96435.25
2023-02-02T09:06:25.015Z,96435.56
2023-02-02T09:08:53.086Z,96444.31
2023-02-02T09:11:21.827Z,96447.81
2023-02-02T09:13:50.637Z,96449.38
2023-02-02T09:16:20.754Z,96446.22
2023-02-02T09:18:49.026Z,96443.22
2023-02-02T09:21:18.631Z,96453.13
2023-02-02T09:23:47.404Z,96445.69
2023-02-02T09:26:17.776Z,96447.94
2023-02-02T09:28:47.546Z,96452.19
2023-02-02T09:31:16.241Z,96455.75
2023-02-02T09:33:45.776Z,96456.88
2023-02-02T09:36:15.347Z,96454.84
2023-02-02T09:38:44.545Z,96450.97
2023-02-02T09:41:52.316Z,96461.00
2023-02-02T09:44:28.910Z,96460.69
2023-02-02T09:47:06.842Z,96456.81
2023-02-02T09:49:45.652Z,96468.19
2023-02-02T09:52:17.475Z,96467.25
2023-02-02T09:54:48.531Z,96471.13
2023-02-02T09:57:21.511Z,96464.28
2023-02-02T09:59:53.297Z,96470.09
2023-02-02T10:02:25.771Z,96462.88
2023-02-02T10:05:01.786Z,96469.19
2023-02-02T10:07:38.571Z,96467.91
2023-02-02T10:10:17.736Z,96475.09
2023-02-02T10:12:54.101Z,96474.47
2023-02-02T10:15:33.678Z,96467.66
2023-02-02T10:18:06.296Z,96474.44
2023-02-02T10:20:43.791Z,96467.63
2023-02-02T10:23:22.946Z,96467.91
2023-02-02T10:25:57.570Z,96469.56
2023-02-02T10:28:42.279Z,96456.00
2023-02-02T10:31:20.556Z,96458.31
2023-02-02T10:34:02.451Z,96457.50
2023-02-02T10:36:41.828Z,96457.63
2023-02-02T10:39:21.199Z,96454.09
2023-02-02T10:41:58.647Z,96449.91
2023-02-02T10:44:34.667Z,96457.84
2023-02-02T10:47:06.062Z,96451.72
2023-02-02T10:49:36.880Z,96447.03
2023-02-02T10:52:17.128Z,96447.69
2023-02-02T10:54:58.129Z,96447.69
2023-02-02T10:57:49.557Z,96456.44
2023-02-02T11:00:23.735Z,96455.13
2023-02-02T11:02:53.241Z,96460.31
2023-02-02T11:05:41.453Z,96464.22
2023-02-02T11:08:20.035Z,96467.13
2023-02-02T11:10:50.785Z,96475.41
2023-02-02T11:13:27.055Z,96466.50
2023-02-02T11:16:38.830Z,96466.50
2023-02-02T11:19:24.612Z,96462.59
2023-02-02T11:21:55.202Z,96459.34
2023-02-02T11:24:27.852Z,96459.66
2023-02-02T11:26:59.414Z,96474.91
2023-02-02T11:29:30.588Z,96470.34
2023-02-02T11:31:59.055Z,96477.50
2023-02-02T11:34:28.377Z,96478.47
2023-02-02T11:37:11.878Z,96476.13
2023-02-02T11:39:41.623Z,96467.03
2023-02-02T11:42:16.114Z,96470.25
2023-02-02T11:44:48.074Z,96475.44
2023-02-02T11:47:22.628Z,96473.78
2023-02-02T11:49:52.609Z,96477.19
2023-02-02T11:52:24.086Z,96463.56
2023-02-02T11:54:56.857Z,96459.66
2023-02-02T11:57:26.881Z,96461.78
2023-02-02T12:00:08.650Z,96451.63
2023-02-02T12:02:36.630Z,96446.38
2023-02-02T12:05:32.960Z,96449.88
2023-02-02T12:08:01.090Z,96445.72
2023-02-02T12:10:37.647Z,96454.94
2023-02-02T12:13:11.056Z,96453.06
2023-02-02T12:15:52.746Z,96446.59
2023-02-02T12:18:42.082Z,96448.47
2023-02-02T12:21:16.966Z,96440.56
2023-02-02T12:23:58.698Z,96429.19
2023-02-02T12:26:31.672Z,96431.22
2023-02-02T12:29:24.255Z,96433.69
2023-02-02T12:32:04.691Z,96443.09
2023-02-02T12:34:44.455Z,96440.22
2023-02-02T12:37:22.752Z,96435.22
2023-02-02T12:40:03.804Z,96444.09
2023-02-02T12:42:56.737Z,96442.09
2023-02-02T12:45:39.255Z,96430.84
2023-02-02T12:48:20.692Z,96427.63
2023-02-02T12:51:01.703Z,96420.75
2023-02-02T12:53:42.430Z,96419.78
2023-02-02T12:56:22.845Z,96413.84
2023-02-02T12:59:04.457Z,96412.06
2023-02-02T13:01:46.275Z,96410.69
2023-02-02T13:04:51.872Z,96423.19
2023-02-02T13:07:34.010Z,96408.94
2023-02-02T13:10:09.336Z,96411.84
2023-02-02T13:12:42.764Z,96415.31
2023-02-02T13:15:17.389Z,96413.94
2023-02-02T13:17:50.032Z,96419.03
2023-02-02T13:20:26.225Z,96417.63
2023-02-02T13:22:58.633Z,96425.38
2023-02-02T13:25:31.558Z,96420.72
2023-02-02T13:28:01.146Z,96420.31
2023-02-02T13:30:34.233Z,96415.56
2023-02-02T13:33:07.157Z,96422.16
2023-02-02T13:35:39.349Z,96419.94
2023-02-02T13:38:17.516Z,96422.16
2023-02-02T13:40:45.916Z,96431.22
2023-02-02T13:43:26.856Z,96427.03
2023-02-02T13:46:11.966Z,96434.84
2023-02-02T13:48:50.109Z,96436.91
2023-02-02T13:51:37.477Z,96442.25
2023-02-02T13:54:34.349Z,96442.72
2023-02-02T13:57:14.348Z,96436.00
2023-02-02T14:00:03.411Z,96440.22
2023-02-02T14:02:42.874Z,96441.19
2023-02-02T14:05:24.543Z,96439.59
2023-02-02T14:08:00.379Z,96443.88
2023-02-02T14:10:32.356Z,96456.91
2023-02-02T14:13:30.638Z,96448.47
2023-02-02T14:15:59.968Z,96453.75
2023-02-02T14:18:55.592Z,96457.34
2023-02-02T14:22:05.060Z,96448.31
2023-02-02T14:24:45.552Z,96448.31
2023-02-02T14:27:42.996Z,96446.38
2023-02-02T14:30:33.112Z,96442.25
2023-02-02T14:33:28.798Z,96456.97
2023-02-02T14:36:02.099Z,96455.88
2023-02-02T14:38:57.216Z,96456.25
2023-02-02T14:42:08.229Z,96446.16
2023-02-02T14:44:37.956Z,96456.25
2023-02-02T14:47:48.942Z,96453.00
2023-02-02T14:50:19.081Z,96456.75
2023-02-02T14:53:00.000Z,96458.47
2023-02-02T14:55:28.722Z,96456.34
2023-02-02T14:57:59.318Z,96455.44
2023-02-02T15:00:32.189Z,96469.63
2023-02-02T15:03:37.554Z,96472.34
2023-02-02T15:06:14.671Z,96478.06
2023-02-02T15:08:44.862Z,96472.66
2023-02-02T15:11:32.056Z,96475.22
2023-02-02T15:14:17.339Z,96473.50
2023-02-02T15:16:47.185Z,96475.38
2023-02-02T15:19:25.827Z,96479.59
2023-02-02T15:21:58.295Z,96479.34
2023-02-02T15:24:30.786Z,96482.03
2023-02-02T15:27:00.281Z,96474.13
2023-02-02T15:29:38.901Z,96482.63
2023-02-02T15:32:08.339Z,96485.72
2023-02-02T15:34:41.936Z,96495.19
2023-02-02T15:37:15.671Z,96488.75
2023-02-02T15:39:49.072Z,96487.47
2023-02-02T15:42:37.583Z,96482.28
2023-02-02T15:45:06.241Z,96484.13
2023-02-02T15:47:42.123Z,96480.94
2023-02-02T15:50:20.148Z,96487.59
2023-02-02T15:52:50.192Z,96485.34
2023-02-02T15:55:25.169Z,96480.41
2023-02-02T15:57:55.188Z,96480.41
2023-02-02T16:00:27.019Z,96487.97
2023-02-02T16:03:01.633Z,96486.59
2023-02-02T16:05:45.308Z,96479.84
2023-02-02T16:08:19.123Z,96489.72
2023-02-02T16:10:50.030Z,96486.50
2023-02-02T16:13:27.376Z,96493.09
2023-02-02T16:16:00.251Z,96487.34
2023-02-02T16:18:28.760Z,96496.59
2023-02-02T16:20:59.130Z,96490.81
2023-02-02T16:23:31.586Z,96490.78
2023-02-02T16:26:03.702Z,96491.88
2023-02-02T16:28:32.530Z,96494.53
2023-02-02T16:31:01.617Z,96497.88
2023-02-02T16:33:31.962Z,96502.84
2023-02-02T16:36:00.125Z,96501.91
2023-02-02T16:38:32.872Z,96505.16
2023-02-02T16:41:09.696Z,96513.28
2023-02-02T16:43:39.421Z,96513.66
2023-02-02T16:46:10.529Z,96514.00
2023-02-02T16:48:40.113Z,96514.31
2023-02-02T16:51:14.554Z,96511.78
2023-02-02T16:53:44.895Z,96527.00
2023-02-02T16:56:29.909Z,96527.66
2023-02-02T16:59:00.245Z,96538.41
2023-02-02T17:01:39.493Z,96539.09
2023-02-02T17:04:17.949Z,96546.88
2023-02-02T17:06:52.778Z,96551.09
2023-02-02T17:09:34.564Z,96550.00
2023-02-02T17:12:14.274Z,96551.28
2023-02-02T17:14:56.662Z,96556.13
2023-02-02T17:17:24.913Z,96548.53
2023-02-02T17:19:52.737Z,96551.47
2023-02-02T17:22:23.677Z,96548.84
2023-02-02T17:24:53.219Z,96553.06
2023-02-02T17:27:28.416Z,96558.25
2023-02-02T17:29:57.252Z,96562.47
2023-02-02T17:32:25.506Z,96563.13
2023-02-02T17:34:53.410Z,96565.88
2023-02-02T17:37:21.277Z,96559.22
2023-02-02T17:39:50.671Z,96558.91
2023-02-02T17:42:25.437Z,96567.66
2023-02-02T17:44:53.755Z,96564.72
2023-02-02T17:47:21.745Z,96568.94
2023-02-02T17:49:49.573Z,96570.88
2023-02-02T17:52:17.435Z,96569.25
2023-02-02T17:54:45.259Z,96564.69
2023-02-02T17:57:13.102Z,96570.84
2023-02-02T17:59:42.446Z,96570.19
2023-02-02T18:02:15.756Z,96559.81
2023-02-02T18:04:45.596Z,96569.53
2023-02-02T18:07:13.646Z,96565.81
2023-02-02T18:09:41.706Z,96568.56
2023-02-02T18:12:09.650Z,96558.69
2023-02-02T18:14:38.111Z,96554.47
2023-02-02T18:17:08.207Z,96558.47
2023-02-02T18:19:36.066Z,96557.81
2023-02-02T18:22:03.965Z,96567.22
2023-02-02T18:24:31.926Z,96559.13
2023-02-02T18:26:59.872Z,96564.63
2023-02-02T18:29:27.693Z,96563.47
2023-02-02T18:31:55.638Z,96569.44
2023-02-02T18:34:25.079Z,96560.34
2023-02-02T18:36:52.924Z,96556.31
2023-02-02T18:39:20.753Z,96558.09
2023-02-02T18:41:48.759Z,96559.38
2023-02-02T18:44:17.208Z,96557.13
2023-02-02T18:46:45.155Z,96556.16
2023-02-02T18:49:13.421Z,96550.00
2023-02-02T18:51:42.861Z,96553.28
2023-02-02T18:54:11.509Z,96552.97
2023-02-02T18:56:39.562Z,96553.88
2023-02-02T18:59:08.239Z,96548.09
2023-02-02T19:01:36.492Z,96557.13
2023-02-02T19:04:04.691Z,96562.03
2023-02-02T19:06:49.917Z,96560.38
2023-02-02T19:09:19.173Z,96567.84
2023-02-02T19:11:48.590Z,96566.56
2023-02-02T19:14:18.695Z,96562.19
2023-02-02T19:16:47.814Z,96560.09
2023-02-02T19:19:24.385Z,96563.94
2023-02-02T19:21:54.884Z,96566.19
2023-02-02T19:24:26.012Z,96574.28
2023-02-02T19:26:54.532Z,96567.81
2023-02-02T19:29:24.125Z,96573.31
2023-02-02T19:31:53.998Z,96574.28
2023-02-02T19:34:23.871Z,96570.56
2023-02-02T19:36:52.307Z,96570.38
2023-02-02T19:39:23.847Z,96578.56
2023-02-02T19:41:57.850Z,96575.41
2023-02-02T19:44:30.229Z,96577.69
2023-02-02T19:46:59.920Z,96588.28
2023-02-02T19:49:32.737Z,96581.06
2023-02-02T19:52:03.703Z,96583.19
2023-02-02T19:54:35.295Z,96583.72
2023-02-02T19:57:15.943Z,96588.91
2023-02-02T19:59:46.924Z,96587.28
2023-02-02T20:02:44.798Z,96584.50
2023-02-02T20:05:19.853Z,96592.88
2023-02-02T20:07:48.389Z,96598.72
2023-02-02T20:10:22.324Z,96592.22
2023-02-02T20:12:52.717Z,96595.47
2023-02-02T20:15:26.983Z,96597.09
2023-02-02T20:17:58.134Z,96596.66
2023-02-02T20:20:28.711Z,96602.00
2023-02-02T20:22:58.385Z,96599.34
2023-02-02T20:25:26.692Z,96598.97
2023-02-02T20:27:58.916Z,96600.53
2023-02-02T20:30:30.924Z,96599.75
2023-02-02T20:33:01.568Z,96610.41
2023-02-02T20:35:36.844Z,96607.28
2023-02-02T20:38:16.951Z,96611.94
2023-02-02T20:40:44.811Z,96615.19
2023-02-02T20:43:15.854Z,96611.84
2023-02-02T20:45:44.140Z,96622.66
2023-02-02T20:48:12.372Z,96617.50
2023-02-02T20:50:40.405Z,96624.00
2023-02-02T20:53:08.277Z,96619.25
2023-02-02T20:55:36.896Z,96622.16
2023-02-02T20:58:05.641Z,96626.09
2023-02-02T21:00:34.890Z,96623.81
2023-02-02T21:03:02.763Z,96621.38
2023-02-02T21:05:31.056Z,96621.88
2023-02-02T21:07:58.885Z,96619.31
2023-02-02T21:10:27.671Z,96627.66
2023-02-02T21:12:55.727Z,96633.09
2023-02-02T21:15:23.586Z,96632.81
2023-02-02T21:17:52.812Z,96633.78
2023-02-02T21:20:21.383Z,96633.41
2023-02-02T21:22:49.397Z,96628.66
2023-02-02T21:25:17.368Z,96629.06
2023-02-02T21:27:45.215Z,96625.00
2023-02-02T21:30:14.453Z,96634.53
2023-02-02T21:32:42.307Z,96624.50
2023-02-02T21:35:13.541Z,96628.03
2023-02-02T21:37:44.200Z,96623.81
2023-02-02T21:40:16.776Z,96622.88
2023-02-02T21:42:48.844Z,96622.56
2023-02-02T21:45:38.416Z,96631.28
2023-02-02T21:48:08.143Z,96630.19
2023-02-02T21:50:40.916Z,96634.16
2023-02-02T21:53:20.956Z,96633.50
2023-02-02T21:55:53.428Z,96629.56
2023-02-02T21:58:25.564Z,96635.69
2023-02-02T22:00:54.441Z,96636.75
2023-02-02T22:03:35.338Z,96647.66
2023-02-02T22:06:22.376Z,96650.00
2023-02-02T22:08:50.771Z,96641.75
2023-02-02T22:11:24.810Z,96648.00
2023-02-02T22:13:55.746Z,96646.38
2023-02-02T22:16:23.770Z,96648.97
2023-02-02T22:18:51.653Z,96649.88
2023-02-02T22:21:21.323Z,96648.00
2023-02-02T22:23:49.229Z,96646.63
2023-02-02T22:26:29.284Z,96648.84
2023-02-02T22:28:57.502Z,96652.94
2023-02-02T22:31:25.445Z,96652.94
2023-02-02T22:33:53.353Z,96657.81
2023-02-02T22:36:22.544Z,96656.47
2023-02-02T22:38:50.435Z,96658.38
2023-02-02T22:41:18.334Z,96669.66
2023-02-02T22:43:46.255Z,96662.97
2023-02-02T22:46:14.103Z,96672.25
2023-02-02T22:48:42.133Z,96669.38
2023-02-02T22:51:10.242Z,96677.13
2023-02-02T22:53:39.491Z,96675.50
2023-02-02T22:56:07.956Z,96679.31
2023-02-02T22:58:35.821Z,96682.28
2023-02-02T23:01:03.661Z,96691.13
2023-02-02T23:03:31.577Z,96694.66
2023-02-02T23:05:59.446Z,96698.03
2023-02-02T23:08:27.277Z,96693.69
2023-02-02T23:10:56.568Z,96695.59
2023-02-02T23:13:24.407Z,96695.88
2023-02-02T23:15:52.362Z,96701.03
2023-02-02T23:18:20.276Z,96702.94
2023-02-02T23:20:48.822Z,96706.19
2023-02-02T23:23:16.700Z,96701.03
2023-02-02T23:25:44.598Z,96705.25
2023-02-02T23:28:13.831Z,96702.94
2023-02-02T23:30:42.327Z,96713.28
2023-02-02T23:33:10.233Z,96708.38
2023-02-02T23:35:38.077Z,96715.31
2023-02-02T23:38:05.902Z,96710.53
2023-02-02T23:40:33.753Z,96713.53
2023-02-02T23:43:01.578Z,96706.47
2023-02-02T23:45:30.921Z,96708.91
2023-02-02T23:47:58.789Z,96705.66
2023-02-02T23:50:26.981Z,96709.47
2023-02-02T23:52:55.306Z,96714.63
2023-02-02T23:55:23.417Z,96717.34
2023-02-02T23:57:51.349Z,96714.91
